sensor_id;sensor_type;location;lat;lon;timestamp;P1;durP1;ratioP1;P2;durP2;ratioP2
65757;SDS011;52495;52.208;5.158;2024-02-14T00:01:20;8.60;;;7.72;;
65757;SDS011;52495;52.208;5.158;2024-02-14T00:03:47;10.45;;;7.32;;
65757;SDS011;52495;52.208;5.158;2024-02-14T00:06:14;7.78;;;6.97;;
65757;SDS011;52495;52.208;5.158;2024-02-14T00:08:40;8.10;;;7.30;;
65757;SDS011;52495;52.208;5.158;2024-02-14T00:11:07;10.35;;;7.93;;
65757;SDS011;52495;52.208;5.158;2024-02-14T00:13:34;8.65;;;7.75;;
65757;SDS011;52495;52.208;5.158;2024-02-14T00:16:02;9.10;;;8.10;;
65757;SDS011;52495;52.208;5.158;2024-02-14T00:18:31;11.18;;;9.38;;
65757;SDS011;52495;52.208;5.158;2024-02-14T00:20:58;8.82;;;7.93;;
65757;SDS011;52495;52.208;5.158;2024-02-14T00:23:25;10.88;;;7.55;;
65757;SDS011;52495;52.208;5.158;2024-02-14T00:25:52;10.55;;;9.20;;
65757;SDS011;52495;52.208;5.158;2024-02-14T00:28:19;9.63;;;8.63;;
65757;SDS011;52495;52.208;5.158;2024-02-14T00:30:49;11.63;;;9.60;;
65757;SDS011;52495;52.208;5.158;2024-02-14T00:33:17;11.98;;;8.60;;
65757;SDS011;52495;52.208;5.158;2024-02-14T00:35:44;10.55;;;9.02;;
65757;SDS011;52495;52.208;5.158;2024-02-14T00:38:10;11.88;;;9.60;;
65757;SDS011;52495;52.208;5.158;2024-02-14T00:40:37;10.45;;;9.35;;
65757;SDS011;52495;52.208;5.158;2024-02-14T00:43:04;10.88;;;8.75;;
65757;SDS011;52495;52.208;5.158;2024-02-14T00:45:31;12.10;;;9.30;;
65757;SDS011;52495;52.208;5.158;2024-02-14T00:47:57;10.65;;;9.20;;
65757;SDS011;52495;52.208;5.158;2024-02-14T00:50:25;11.65;;;9.60;;
65757;SDS011;52495;52.208;5.158;2024-02-14T00:52:52;12.93;;;9.98;;
65757;SDS011;52495;52.208;5.158;2024-02-14T00:55:19;13.80;;;10.73;;
65757;SDS011;52495;52.208;5.158;2024-02-14T00:57:46;12.45;;;11.15;;
65757;SDS011;52495;52.208;5.158;2024-02-14T01:00:13;13.48;;;11.13;;
65757;SDS011;52495;52.208;5.158;2024-02-14T01:02:42;13.65;;;11.27;;
65757;SDS011;52495;52.208;5.158;2024-02-14T01:05:09;14.57;;;10.98;;
65757;SDS011;52495;52.208;5.158;2024-02-14T01:07:37;11.77;;;10.52;;
65757;SDS011;52495;52.208;5.158;2024-02-14T01:10:04;17.00;;;12.07;;
65757;SDS011;52495;52.208;5.158;2024-02-14T01:12:31;16.02;;;12.05;;
65757;SDS011;52495;52.208;5.158;2024-02-14T01:14:57;16.20;;;12.90;;
65757;SDS011;52495;52.208;5.158;2024-02-14T01:17:24;12.80;;;11.35;;
65757;SDS011;52495;52.208;5.158;2024-02-14T01:19:51;13.60;;;11.30;;
65757;SDS011;52495;52.208;5.158;2024-02-14T01:22:18;13.05;;;11.27;;
65757;SDS011;52495;52.208;5.158;2024-02-14T01:24:46;13.25;;;11.55;;
65757;SDS011;52495;52.208;5.158;2024-02-14T01:27:13;14.10;;;11.43;;
65757;SDS011;52495;52.208;5.158;2024-02-14T01:29:39;12.77;;;11.48;;
65757;SDS011;52495;52.208;5.158;2024-02-14T01:32:06;13.98;;;10.80;;
65757;SDS011;52495;52.208;5.158;2024-02-14T01:34:33;14.13;;;12.20;;
65757;SDS011;52495;52.208;5.158;2024-02-14T01:36:59;16.00;;;11.80;;
65757;SDS011;52495;52.208;5.158;2024-02-14T01:39:26;16.67;;;12.65;;
65757;SDS011;52495;52.208;5.158;2024-02-14T01:41:54;15.52;;;11.32;;
65757;SDS011;52495;52.208;5.158;2024-02-14T01:44:21;16.52;;;11.88;;
65757;SDS011;52495;52.208;5.158;2024-02-14T01:46:48;13.45;;;12.00;;
65757;SDS011;52495;52.208;5.158;2024-02-14T01:49:14;13.10;;;11.68;;
65757;SDS011;52495;52.208;5.158;2024-02-14T01:51:42;14.27;;;11.90;;
65757;SDS011;52495;52.208;5.158;2024-02-14T01:54:11;16.70;;;12.07;;
65757;SDS011;52495;52.208;5.158;2024-02-14T01:56:39;14.13;;;12.45;;
65757;SDS011;52495;52.208;5.158;2024-02-14T01:59:08;17.45;;;13.45;;
65757;SDS011;52495;52.208;5.158;2024-02-14T02:01:36;17.02;;;14.20;;
65757;SDS011;52495;52.208;5.158;2024-02-14T02:04:03;16.33;;;13.98;;
65757;SDS011;52495;52.208;5.158;2024-02-14T02:06:30;14.48;;;12.43;;
65757;SDS011;52495;52.208;5.158;2024-02-14T02:08:58;21.98;;;13.43;;
65757;SDS011;52495;52.208;5.158;2024-02-14T02:11:25;15.98;;;13.27;;
65757;SDS011;52495;52.208;5.158;2024-02-14T02:13:52;16.85;;;12.77;;
65757;SDS011;52495;52.208;5.158;2024-02-14T02:16:21;15.77;;;12.35;;
65757;SDS011;52495;52.208;5.158;2024-02-14T02:18:48;14.85;;;12.20;;
65757;SDS011;52495;52.208;5.158;2024-02-14T02:21:15;17.80;;;13.98;;
65757;SDS011;52495;52.208;5.158;2024-02-14T02:23:47;15.50;;;11.50;;
65757;SDS011;52495;52.208;5.158;2024-02-14T02:26:13;12.77;;;11.35;;
65757;SDS011;52495;52.208;5.158;2024-02-14T02:28:40;14.13;;;11.32;;
65757;SDS011;52495;52.208;5.158;2024-02-14T02:31:07;14.60;;;11.90;;
65757;SDS011;52495;52.208;5.158;2024-02-14T02:33:35;16.02;;;12.73;;
65757;SDS011;52495;52.208;5.158;2024-02-14T02:36:02;13.30;;;10.68;;
65757;SDS011;52495;52.208;5.158;2024-02-14T02:38:29;16.40;;;11.18;;
65757;SDS011;52495;52.208;5.158;2024-02-14T02:40:57;11.75;;;9.70;;
65757;SDS011;52495;52.208;5.158;2024-02-14T02:43:25;12.07;;;9.80;;
65757;SDS011;52495;52.208;5.158;2024-02-14T02:45:52;14.77;;;11.68;;
65757;SDS011;52495;52.208;5.158;2024-02-14T02:48:19;15.15;;;11.13;;
65757;SDS011;52495;52.208;5.158;2024-02-14T02:50:48;12.82;;;11.07;;
65757;SDS011;52495;52.208;5.158;2024-02-14T02:53:15;14.52;;;11.73;;
65757;SDS011;52495;52.208;5.158;2024-02-14T02:55:42;11.50;;;10.30;;
65757;SDS011;52495;52.208;5.158;2024-02-14T02:58:10;12.30;;;9.80;;
65757;SDS011;52495;52.208;5.158;2024-02-14T03:00:37;10.27;;;8.38;;
65757;SDS011;52495;52.208;5.158;2024-02-14T03:03:07;11.90;;;9.60;;
65757;SDS011;52495;52.208;5.158;2024-02-14T03:05:34;11.02;;;9.00;;
65757;SDS011;52495;52.208;5.158;2024-02-14T03:08:01;11.20;;;9.25;;
65757;SDS011;52495;52.208;5.158;2024-02-14T03:10:28;9.60;;;8.35;;
65757;SDS011;52495;52.208;5.158;2024-02-14T03:12:55;9.77;;;8.73;;
65757;SDS011;52495;52.208;5.158;2024-02-14T03:15:24;10.48;;;9.23;;
65757;SDS011;52495;52.208;5.158;2024-02-14T03:17:51;12.13;;;9.80;;
65757;SDS011;52495;52.208;5.158;2024-02-14T03:20:17;12.98;;;9.95;;
65757;SDS011;52495;52.208;5.158;2024-02-14T03:22:44;11.45;;;9.27;;
65757;SDS011;52495;52.208;5.158;2024-02-14T03:25:12;11.70;;;9.50;;
65757;SDS011;52495;52.208;5.158;2024-02-14T03:27:40;11.10;;;9.85;;
65757;SDS011;52495;52.208;5.158;2024-02-14T03:30:07;13.52;;;10.77;;
65757;SDS011;52495;52.208;5.158;2024-02-14T03:32:36;12.55;;;10.88;;
65757;SDS011;52495;52.208;5.158;2024-02-14T03:35:02;14.80;;;11.85;;
65757;SDS011;52495;52.208;5.158;2024-02-14T03:37:29;15.68;;;11.48;;
65757;SDS011;52495;52.208;5.158;2024-02-14T03:39:58;15.02;;;11.10;;
65757;SDS011;52495;52.208;5.158;2024-02-14T03:42:25;14.23;;;11.75;;
65757;SDS011;52495;52.208;5.158;2024-02-14T03:44:52;14.52;;;11.95;;
65757;SDS011;52495;52.208;5.158;2024-02-14T03:49:53;14.57;;;11.38;;
65757;SDS011;52495;52.208;5.158;2024-02-14T03:52:19;16.15;;;12.85;;
65757;SDS011;52495;52.208;5.158;2024-02-14T03:54:47;17.48;;;14.30;;
65757;SDS011;52495;52.208;5.158;2024-02-14T03:57:15;17.40;;;13.45;;
65757;SDS011;52495;52.208;5.158;2024-02-14T03:59:43;22.42;;;12.98;;
65757;SDS011;52495;52.208;5.158;2024-02-14T04:02:09;18.30;;;13.90;;
65757;SDS011;52495;52.208;5.158;2024-02-14T04:04:36;20.60;;;13.63;;
65757;SDS011;52495;52.208;5.158;2024-02-14T04:07:05;22.35;;;14.73;;
65757;SDS011;52495;52.208;5.158;2024-02-14T04:09:33;21.63;;;13.75;;
65757;SDS011;52495;52.208;5.158;2024-02-14T04:12:00;21.80;;;15.13;;
65757;SDS011;52495;52.208;5.158;2024-02-14T04:14:27;20.88;;;14.70;;
65757;SDS011;52495;52.208;5.158;2024-02-14T04:16:54;24.98;;;14.57;;
65757;SDS011;52495;52.208;5.158;2024-02-14T04:19:21;25.08;;;14.68;;
65757;SDS011;52495;52.208;5.158;2024-02-14T04:21:48;26.67;;;16.00;;
65757;SDS011;52495;52.208;5.158;2024-02-14T04:24:16;25.20;;;15.68;;
65757;SDS011;52495;52.208;5.158;2024-02-14T04:26:43;23.05;;;14.52;;
65757;SDS011;52495;52.208;5.158;2024-02-14T04:29:10;23.00;;;15.20;;
65757;SDS011;52495;52.208;5.158;2024-02-14T04:31:37;26.77;;;14.75;;
65757;SDS011;52495;52.208;5.158;2024-02-14T04:34:03;25.15;;;16.23;;
65757;SDS011;52495;52.208;5.158;2024-02-14T04:36:33;29.58;;;16.48;;
65757;SDS011;52495;52.208;5.158;2024-02-14T04:39:00;24.58;;;16.08;;
65757;SDS011;52495;52.208;5.158;2024-02-14T04:41:29;27.85;;;16.50;;
65757;SDS011;52495;52.208;5.158;2024-02-14T04:43:56;24.48;;;15.45;;
65757;SDS011;52495;52.208;5.158;2024-02-14T04:46:22;25.98;;;16.88;;
65757;SDS011;52495;52.208;5.158;2024-02-14T04:48:49;27.00;;;16.35;;
65757;SDS011;52495;52.208;5.158;2024-02-14T04:51:16;29.33;;;16.23;;
65757;SDS011;52495;52.208;5.158;2024-02-14T04:53:43;29.55;;;16.55;;
65757;SDS011;52495;52.208;5.158;2024-02-14T04:56:09;29.05;;;17.23;;
65757;SDS011;52495;52.208;5.158;2024-02-14T04:58:37;29.73;;;16.90;;
65757;SDS011;52495;52.208;5.158;2024-02-14T05:01:04;28.63;;;16.42;;
65757;SDS011;52495;52.208;5.158;2024-02-14T05:03:32;21.20;;;15.48;;
65757;SDS011;52495;52.208;5.158;2024-02-14T05:05:59;23.73;;;15.05;;
65757;SDS011;52495;52.208;5.158;2024-02-14T05:08:27;24.63;;;16.65;;
65757;SDS011;52495;52.208;5.158;2024-02-14T05:10:54;26.25;;;15.35;;
65757;SDS011;52495;52.208;5.158;2024-02-14T05:13:21;30.10;;;17.33;;
65757;SDS011;52495;52.208;5.158;2024-02-14T05:15:50;28.90;;;18.00;;
65757;SDS011;52495;52.208;5.158;2024-02-14T05:18:17;27.90;;;18.55;;
65757;SDS011;52495;52.208;5.158;2024-02-14T05:20:44;32.33;;;18.88;;
65757;SDS011;52495;52.208;5.158;2024-02-14T05:23:10;26.35;;;17.45;;
65757;SDS011;52495;52.208;5.158;2024-02-14T05:25:37;30.30;;;18.38;;
65757;SDS011;52495;52.208;5.158;2024-02-14T05:28:04;29.48;;;18.33;;
65757;SDS011;52495;52.208;5.158;2024-02-14T05:30:31;32.10;;;18.20;;
65757;SDS011;52495;52.208;5.158;2024-02-14T05:32:59;34.78;;;18.50;;
65757;SDS011;52495;52.208;5.158;2024-02-14T05:35:26;27.00;;;17.90;;
65757;SDS011;52495;52.208;5.158;2024-02-14T05:37:53;26.67;;;18.65;;
65757;SDS011;52495;52.208;5.158;2024-02-14T05:40:21;32.03;;;18.65;;
65757;SDS011;52495;52.208;5.158;2024-02-14T05:42:47;28.88;;;18.60;;
65757;SDS011;52495;52.208;5.158;2024-02-14T05:45:14;29.45;;;18.95;;
65757;SDS011;52495;52.208;5.158;2024-02-14T05:47:41;25.42;;;17.63;;
65757;SDS011;52495;52.208;5.158;2024-02-14T05:50:10;28.27;;;18.50;;
65757;SDS011;52495;52.208;5.158;2024-02-14T05:52:38;27.70;;;16.70;;
65757;SDS011;52495;52.208;5.158;2024-02-14T05:55:05;26.27;;;17.55;;
65757;SDS011;52495;52.208;5.158;2024-02-14T05:57:33;22.30;;;15.30;;
65757;SDS011;52495;52.208;5.158;2024-02-14T06:00:00;24.80;;;16.13;;
65757;SDS011;52495;52.208;5.158;2024-02-14T06:02:36;21.30;;;15.13;;
65757;SDS011;52495;52.208;5.158;2024-02-14T06:05:05;21.25;;;15.60;;
65757;SDS011;52495;52.208;5.158;2024-02-14T06:07:36;18.85;;;14.45;;
65757;SDS011;52495;52.208;5.158;2024-02-14T06:10:03;22.70;;;15.55;;
65757;SDS011;52495;52.208;5.158;2024-02-14T06:12:31;21.08;;;15.93;;
65757;SDS011;52495;52.208;5.158;2024-02-14T06:14:58;24.40;;;18.05;;
65757;SDS011;52495;52.208;5.158;2024-02-14T06:17:25;23.77;;;17.38;;
65757;SDS011;52495;52.208;5.158;2024-02-14T06:19:52;27.33;;;18.83;;
65757;SDS011;52495;52.208;5.158;2024-02-14T06:22:18;29.10;;;19.65;;
65757;SDS011;52495;52.208;5.158;2024-02-14T06:24:46;54.78;;;21.35;;
65757;SDS011;52495;52.208;5.158;2024-02-14T06:27:13;47.20;;;20.25;;
65757;SDS011;52495;52.208;5.158;2024-02-14T06:29:41;63.22;;;20.98;;
65757;SDS011;52495;52.208;5.158;2024-02-14T06:32:08;27.88;;;18.45;;
65757;SDS011;52495;52.208;5.158;2024-02-14T06:34:35;26.63;;;17.70;;
65757;SDS011;52495;52.208;5.158;2024-02-14T06:37:01;23.30;;;17.58;;
65757;SDS011;52495;52.208;5.158;2024-02-14T06:39:29;22.48;;;17.40;;
65757;SDS011;52495;52.208;5.158;2024-02-14T06:41:57;22.77;;;16.70;;
65757;SDS011;52495;52.208;5.158;2024-02-14T06:44:24;25.77;;;16.23;;
65757;SDS011;52495;52.208;5.158;2024-02-14T06:46:51;24.52;;;15.32;;
65757;SDS011;52495;52.208;5.158;2024-02-14T06:49:18;27.05;;;17.85;;
65757;SDS011;52495;52.208;5.158;2024-02-14T06:51:44;26.80;;;17.48;;
65757;SDS011;52495;52.208;5.158;2024-02-14T06:54:11;24.05;;;15.75;;
65757;SDS011;52495;52.208;5.158;2024-02-14T06:56:38;24.33;;;17.15;;
65757;SDS011;52495;52.208;5.158;2024-02-14T06:59:06;28.88;;;20.25;;
65757;SDS011;52495;52.208;5.158;2024-02-14T07:01:33;27.80;;;17.85;;
65757;SDS011;52495;52.208;5.158;2024-02-14T07:04:00;32.33;;;19.95;;
65757;SDS011;52495;52.208;5.158;2024-02-14T07:06:28;33.97;;;20.05;;
65757;SDS011;52495;52.208;5.158;2024-02-14T07:08:55;31.83;;;19.63;;
65757;SDS011;52495;52.208;5.158;2024-02-14T07:11:22;28.90;;;19.05;;
65757;SDS011;52495;52.208;5.158;2024-02-14T07:13:49;29.02;;;20.17;;
65757;SDS011;52495;52.208;5.158;2024-02-14T07:16:17;34.92;;;21.00;;
65757;SDS011;52495;52.208;5.158;2024-02-14T07:18:44;32.10;;;22.52;;
65757;SDS011;52495;52.208;5.158;2024-02-14T07:21:11;32.08;;;20.90;;
65757;SDS011;52495;52.208;5.158;2024-02-14T07:23:38;34.30;;;22.10;;
65757;SDS011;52495;52.208;5.158;2024-02-14T07:26:04;40.75;;;22.42;;
65757;SDS011;52495;52.208;5.158;2024-02-14T07:28:31;37.38;;;24.27;;
65757;SDS011;52495;52.208;5.158;2024-02-14T07:30:58;40.78;;;24.50;;
65757;SDS011;52495;52.208;5.158;2024-02-14T07:33:26;35.60;;;24.02;;
65757;SDS011;52495;52.208;5.158;2024-02-14T07:35:53;35.58;;;23.83;;
65757;SDS011;52495;52.208;5.158;2024-02-14T07:38:19;31.33;;;21.40;;
65757;SDS011;52495;52.208;5.158;2024-02-14T07:40:48;34.80;;;21.70;;
65757;SDS011;52495;52.208;5.158;2024-02-14T07:43:15;32.67;;;22.48;;
65757;SDS011;52495;52.208;5.158;2024-02-14T07:45:41;32.25;;;20.33;;
65757;SDS011;52495;52.208;5.158;2024-02-14T07:48:08;31.63;;;21.52;;
65757;SDS011;52495;52.208;5.158;2024-02-14T07:50:36;32.92;;;21.17;;
65757;SDS011;52495;52.208;5.158;2024-02-14T07:53:03;37.70;;;21.60;;
65757;SDS011;52495;52.208;5.158;2024-02-14T07:55:31;34.35;;;22.05;;
65757;SDS011;52495;52.208;5.158;2024-02-14T07:57:58;28.92;;;19.58;;
65757;SDS011;52495;52.208;5.158;2024-02-14T08:00:25;29.10;;;20.50;;
65757;SDS011;52495;52.208;5.158;2024-02-14T08:02:52;31.90;;;20.63;;
65757;SDS011;52495;52.208;5.158;2024-02-14T08:05:19;27.50;;;18.40;;
65757;SDS011;52495;52.208;5.158;2024-02-14T08:07:47;26.75;;;18.35;;
65757;SDS011;52495;52.208;5.158;2024-02-14T08:10:14;25.17;;;18.65;;
65757;SDS011;52495;52.208;5.158;2024-02-14T08:12:40;23.38;;;16.27;;
65757;SDS011;52495;52.208;5.158;2024-02-14T08:15:08;22.65;;;16.23;;
65757;SDS011;52495;52.208;5.158;2024-02-14T08:17:35;21.65;;;14.77;;
65757;SDS011;52495;52.208;5.158;2024-02-14T08:20:03;23.92;;;15.25;;
65757;SDS011;52495;52.208;5.158;2024-02-14T08:22:30;24.58;;;15.48;;
65757;SDS011;52495;52.208;5.158;2024-02-14T08:24:59;19.20;;;15.27;;
65757;SDS011;52495;52.208;5.158;2024-02-14T08:27:26;19.85;;;13.90;;
65757;SDS011;52495;52.208;5.158;2024-02-14T08:29:52;20.80;;;15.32;;
65757;SDS011;52495;52.208;5.158;2024-02-14T08:32:19;21.38;;;15.70;;
65757;SDS011;52495;52.208;5.158;2024-02-14T08:34:46;21.65;;;14.45;;
65757;SDS011;52495;52.208;5.158;2024-02-14T08:37:13;25.92;;;16.55;;
65757;SDS011;52495;52.208;5.158;2024-02-14T08:39:40;23.42;;;16.23;;
65757;SDS011;52495;52.208;5.158;2024-02-14T08:42:08;22.48;;;15.50;;
65757;SDS011;52495;52.208;5.158;2024-02-14T08:44:36;25.15;;;16.35;;
65757;SDS011;52495;52.208;5.158;2024-02-14T08:47:03;22.30;;;16.00;;
65757;SDS011;52495;52.208;5.158;2024-02-14T08:49:30;23.92;;;15.50;;
65757;SDS011;52495;52.208;5.158;2024-02-14T08:51:57;19.33;;;13.82;;
65757;SDS011;52495;52.208;5.158;2024-02-14T08:54:23;17.60;;;13.75;;
65757;SDS011;52495;52.208;5.158;2024-02-14T08:56:52;15.65;;;12.90;;
65757;SDS011;52495;52.208;5.158;2024-02-14T08:59:22;16.45;;;11.75;;
65757;SDS011;52495;52.208;5.158;2024-02-14T09:01:49;14.50;;;11.77;;
65757;SDS011;52495;52.208;5.158;2024-02-14T09:04:15;14.30;;;10.82;;
65757;SDS011;52495;52.208;5.158;2024-02-14T09:06:42;12.82;;;9.93;;
65757;SDS011;52495;52.208;5.158;2024-02-14T09:09:09;12.65;;;9.80;;
65757;SDS011;52495;52.208;5.158;2024-02-14T09:11:36;14.32;;;10.55;;
65757;SDS011;52495;52.208;5.158;2024-02-14T09:14:03;13.45;;;9.32;;
65757;SDS011;52495;52.208;5.158;2024-02-14T09:16:33;11.48;;;9.27;;
65757;SDS011;52495;52.208;5.158;2024-02-14T09:18:59;11.63;;;9.10;;
65757;SDS011;52495;52.208;5.158;2024-02-14T09:21:27;11.93;;;8.35;;
65757;SDS011;52495;52.208;5.158;2024-02-14T09:23:54;11.70;;;9.02;;
65757;SDS011;52495;52.208;5.158;2024-02-14T09:26:21;9.90;;;8.27;;
65757;SDS011;52495;52.208;5.158;2024-02-14T09:28:47;11.68;;;8.32;;
65757;SDS011;52495;52.208;5.158;2024-02-14T09:31:17;11.15;;;8.40;;
65757;SDS011;52495;52.208;5.158;2024-02-14T09:33:46;10.02;;;7.40;;
65757;SDS011;52495;52.208;5.158;2024-02-14T09:36:14;10.73;;;7.80;;
65757;SDS011;52495;52.208;5.158;2024-02-14T09:38:40;9.52;;;7.57;;
65757;SDS011;52495;52.208;5.158;2024-02-14T09:41:10;8.70;;;7.00;;
65757;SDS011;52495;52.208;5.158;2024-02-14T09:43:43;10.13;;;6.85;;
65757;SDS011;52495;52.208;5.158;2024-02-14T09:46:11;9.05;;;6.93;;
65757;SDS011;52495;52.208;5.158;2024-02-14T09:48:39;10.80;;;7.75;;
65757;SDS011;52495;52.208;5.158;2024-02-14T09:51:09;11.65;;;8.15;;
65757;SDS011;52495;52.208;5.158;2024-02-14T09:53:37;11.52;;;8.57;;
65757;SDS011;52495;52.208;5.158;2024-02-14T09:56:05;13.80;;;10.23;;
65757;SDS011;52495;52.208;5.158;2024-02-14T09:58:32;13.23;;;10.15;;
65757;SDS011;52495;52.208;5.158;2024-02-14T10:01:00;15.05;;;9.55;;
65757;SDS011;52495;52.208;5.158;2024-02-14T10:03:27;15.57;;;10.48;;
65757;SDS011;52495;52.208;5.158;2024-02-14T10:05:54;15.80;;;10.32;;
65757;SDS011;52495;52.208;5.158;2024-02-14T10:08:22;16.48;;;10.27;;
65757;SDS011;52495;52.208;5.158;2024-02-14T10:10:50;11.13;;;9.15;;
65757;SDS011;52495;52.208;5.158;2024-02-14T10:13:17;16.33;;;10.65;;
65757;SDS011;52495;52.208;5.158;2024-02-14T10:15:43;14.88;;;10.23;;
65757;SDS011;52495;52.208;5.158;2024-02-14T10:18:11;14.10;;;10.32;;
65757;SDS011;52495;52.208;5.158;2024-02-14T10:20:39;11.60;;;9.40;;
65757;SDS011;52495;52.208;5.158;2024-02-14T10:23:10;13.05;;;9.32;;
65757;SDS011;52495;52.208;5.158;2024-02-14T10:25:38;17.33;;;9.65;;
65757;SDS011;52495;52.208;5.158;2024-02-14T10:28:05;12.73;;;8.57;;
65757;SDS011;52495;52.208;5.158;2024-02-14T10:30:33;10.75;;;7.70;;
65757;SDS011;52495;52.208;5.158;2024-02-14T10:33:03;11.15;;;8.07;;
65757;SDS011;52495;52.208;5.158;2024-02-14T10:35:32;11.50;;;8.23;;
65757;SDS011;52495;52.208;5.158;2024-02-14T10:38:02;9.13;;;7.85;;
65757;SDS011;52495;52.208;5.158;2024-02-14T10:40:31;10.77;;;8.48;;
65757;SDS011;52495;52.208;5.158;2024-02-14T10:43:00;11.02;;;8.45;;
65757;SDS011;52495;52.208;5.158;2024-02-14T10:45:27;9.65;;;8.02;;
65757;SDS011;52495;52.208;5.158;2024-02-14T10:47:54;9.88;;;8.18;;
65757;SDS011;52495;52.208;5.158;2024-02-14T10:50:22;12.35;;;8.27;;
65757;SDS011;52495;52.208;5.158;2024-02-14T10:52:53;11.80;;;8.25;;
65757;SDS011;52495;52.208;5.158;2024-02-14T10:55:24;11.02;;;9.23;;
65757;SDS011;52495;52.208;5.158;2024-02-14T10:57:55;10.27;;;7.47;;
65757;SDS011;52495;52.208;5.158;2024-02-14T11:00:25;8.70;;;7.78;;
65757;SDS011;52495;52.208;5.158;2024-02-14T11:02:52;9.77;;;7.60;;
65757;SDS011;52495;52.208;5.158;2024-02-14T11:05:20;11.43;;;8.15;;
65757;SDS011;52495;52.208;5.158;2024-02-14T11:07:49;8.75;;;7.35;;
65757;SDS011;52495;52.208;5.158;2024-02-14T11:10:18;12.80;;;8.27;;
65757;SDS011;52495;52.208;5.158;2024-02-14T11:12:46;10.02;;;8.05;;
65757;SDS011;52495;52.208;5.158;2024-02-14T11:15:16;10.00;;;7.43;;
65757;SDS011;52495;52.208;5.158;2024-02-14T11:17:46;10.55;;;8.02;;
65757;SDS011;52495;52.208;5.158;2024-02-14T11:20:15;8.48;;;7.40;;
65757;SDS011;52495;52.208;5.158;2024-02-14T11:22:55;9.35;;;8.15;;
65757;SDS011;52495;52.208;5.158;2024-02-14T11:25:30;10.80;;;7.95;;
65757;SDS011;52495;52.208;5.158;2024-02-14T11:27:58;9.05;;;7.72;;
65757;SDS011;52495;52.208;5.158;2024-02-14T11:30:30;9.07;;;7.80;;
65757;SDS011;52495;52.208;5.158;2024-02-14T11:35:52;9.13;;;8.15;;
65757;SDS011;52495;52.208;5.158;2024-02-14T11:38:20;10.38;;;8.48;;
65757;SDS011;52495;52.208;5.158;2024-02-14T11:40:48;9.55;;;7.88;;
65757;SDS011;52495;52.208;5.158;2024-02-14T11:43:17;9.50;;;7.97;;
65757;SDS011;52495;52.208;5.158;2024-02-14T11:45:45;10.05;;;7.97;;
65757;SDS011;52495;52.208;5.158;2024-02-14T11:48:15;8.65;;;7.75;;
65757;SDS011;52495;52.208;5.158;2024-02-14T11:50:44;10.73;;;7.70;;
65757;SDS011;52495;52.208;5.158;2024-02-14T11:53:11;11.75;;;8.43;;
65757;SDS011;52495;52.208;5.158;2024-02-14T11:55:41;9.68;;;8.18;;
65757;SDS011;52495;52.208;5.158;2024-02-14T11:58:09;13.35;;;8.63;;
65757;SDS011;52495;52.208;5.158;2024-02-14T12:00:37;9.52;;;7.57;;
65757;SDS011;52495;52.208;5.158;2024-02-14T12:03:06;9.35;;;7.88;;
65757;SDS011;52495;52.208;5.158;2024-02-14T12:05:33;10.57;;;8.63;;
65757;SDS011;52495;52.208;5.158;2024-02-14T12:08:03;11.05;;;8.13;;
65757;SDS011;52495;52.208;5.158;2024-02-14T12:10:32;11.18;;;8.90;;
65757;SDS011;52495;52.208;5.158;2024-02-14T12:13:04;10.40;;;8.50;;
65757;SDS011;52495;52.208;5.158;2024-02-14T12:15:36;9.43;;;7.85;;
65757;SDS011;52495;52.208;5.158;2024-02-14T12:18:04;11.57;;;8.50;;
65757;SDS011;52495;52.208;5.158;2024-02-14T12:20:31;12.02;;;9.68;;
65757;SDS011;52495;52.208;5.158;2024-02-14T12:22:58;10.55;;;8.75;;
65757;SDS011;52495;52.208;5.158;2024-02-14T12:25:26;10.82;;;7.90;;
65757;SDS011;52495;52.208;5.158;2024-02-14T12:27:53;9.20;;;7.97;;
65757;SDS011;52495;52.208;5.158;2024-02-14T12:30:23;9.73;;;8.57;;
65757;SDS011;52495;52.208;5.158;2024-02-14T12:32:59;9.90;;;8.18;;
65757;SDS011;52495;52.208;5.158;2024-02-14T12:35:33;9.82;;;8.07;;
65757;SDS011;52495;52.208;5.158;2024-02-14T12:38:05;9.07;;;7.45;;
65757;SDS011;52495;52.208;5.158;2024-02-14T12:40:36;6.95;;;6.15;;
65757;SDS011;52495;52.208;5.158;2024-02-14T12:43:03;9.43;;;7.10;;
65757;SDS011;52495;52.208;5.158;2024-02-14T12:45:31;7.22;;;6.47;;
65757;SDS011;52495;52.208;5.158;2024-02-14T12:47:57;8.02;;;6.28;;
65757;SDS011;52495;52.208;5.158;2024-02-14T12:50:24;8.07;;;5.53;;
65757;SDS011;52495;52.208;5.158;2024-02-14T12:52:51;7.97;;;6.15;;
65757;SDS011;52495;52.208;5.158;2024-02-14T12:55:18;8.57;;;6.40;;
65757;SDS011;52495;52.208;5.158;2024-02-14T12:57:46;8.23;;;6.20;;
65757;SDS011;52495;52.208;5.158;2024-02-14T13:00:13;6.05;;;5.05;;
65757;SDS011;52495;52.208;5.158;2024-02-14T13:02:41;6.03;;;5.07;;
65757;SDS011;52495;52.208;5.158;2024-02-14T13:05:08;5.50;;;4.90;;
65757;SDS011;52495;52.208;5.158;2024-02-14T13:07:35;6.43;;;5.18;;
65757;SDS011;52495;52.208;5.158;2024-02-14T13:10:02;6.20;;;5.07;;
65757;SDS011;52495;52.208;5.158;2024-02-14T13:12:29;7.43;;;6.00;;
65757;SDS011;52495;52.208;5.158;2024-02-14T13:14:57;5.75;;;5.18;;
65757;SDS011;52495;52.208;5.158;2024-02-14T13:17:24;7.55;;;6.13;;
65757;SDS011;52495;52.208;5.158;2024-02-14T13:19:51;8.30;;;6.25;;
65757;SDS011;52495;52.208;5.158;2024-02-14T13:22:19;8.00;;;6.05;;
65757;SDS011;52495;52.208;5.158;2024-02-14T13:24:46;7.50;;;6.45;;
65757;SDS011;52495;52.208;5.158;2024-02-14T13:27:12;8.02;;;6.70;;
65757;SDS011;52495;52.208;5.158;2024-02-14T13:29:39;7.10;;;5.97;;
65757;SDS011;52495;52.208;5.158;2024-02-14T13:32:07;7.43;;;6.38;;
65757;SDS011;52495;52.208;5.158;2024-02-14T13:34:34;6.82;;;5.88;;
65757;SDS011;52495;52.208;5.158;2024-02-14T13:37:01;6.93;;;6.22;;
65757;SDS011;52495;52.208;5.158;2024-02-14T13:39:28;7.07;;;5.63;;
65757;SDS011;52495;52.208;5.158;2024-02-14T13:41:54;6.43;;;5.40;;
65757;SDS011;52495;52.208;5.158;2024-02-14T13:44:23;6.65;;;5.95;;
65757;SDS011;52495;52.208;5.158;2024-02-14T13:46:50;7.60;;;6.13;;
65757;SDS011;52495;52.208;5.158;2024-02-14T13:49:19;8.20;;;6.30;;
65757;SDS011;52495;52.208;5.158;2024-02-14T13:51:47;6.82;;;6.13;;
65757;SDS011;52495;52.208;5.158;2024-02-14T13:54:15;8.13;;;6.45;;
65757;SDS011;52495;52.208;5.158;2024-02-14T13:56:42;6.57;;;5.55;;
65757;SDS011;52495;52.208;5.158;2024-02-14T13:59:09;6.82;;;6.13;;
65757;SDS011;52495;52.208;5.158;2024-02-14T14:01:36;5.47;;;4.95;;
65757;SDS011;52495;52.208;5.158;2024-02-14T14:04:03;6.55;;;5.68;;
65757;SDS011;52495;52.208;5.158;2024-02-14T14:06:31;7.53;;;6.18;;
65757;SDS011;52495;52.208;5.158;2024-02-14T14:08:59;7.28;;;5.82;;
65757;SDS011;52495;52.208;5.158;2024-02-14T14:11:28;7.28;;;6.45;;
65757;SDS011;52495;52.208;5.158;2024-02-14T14:13:55;6.32;;;5.47;;
65757;SDS011;52495;52.208;5.158;2024-02-14T14:16:22;5.90;;;5.10;;
65757;SDS011;52495;52.208;5.158;2024-02-14T14:18:48;6.05;;;5.05;;
65757;SDS011;52495;52.208;5.158;2024-02-14T14:21:15;5.47;;;4.93;;
65757;SDS011;52495;52.208;5.158;2024-02-14T14:23:43;7.43;;;5.30;;
65757;SDS011;52495;52.208;5.158;2024-02-14T14:26:10;6.38;;;5.18;;
65757;SDS011;52495;52.208;5.158;2024-02-14T14:28:38;5.25;;;4.57;;
65757;SDS011;52495;52.208;5.158;2024-02-14T14:31:05;5.88;;;5.00;;
65757;SDS011;52495;52.208;5.158;2024-02-14T14:33:32;5.68;;;4.35;;
65757;SDS011;52495;52.208;5.158;2024-02-14T14:35:58;6.07;;;4.80;;
65757;SDS011;52495;52.208;5.158;2024-02-14T14:38:25;4.82;;;4.32;;